sensor_id;sensor_type;location;lat;lon;timestamp;temperature;humidity
15111;DHT22;7656;51.954;7.998;2023-07-29T00:03:03;20.40;99.90
15111;DHT22;7656;51.954;7.998;2023-07-29T00:07:24;20.40;99.90
15111;DHT22;7656;51.954;7.998;2023-07-29T00:11:45;20.30;99.90
15111;DHT22;7656;51.954;7.998;2023-07-29T00:16:06;20.30;99.90
15111;DHT22;7656;51.954;7.998;2023-07-29T00:20:27;20.20;99.90
15111;DHT22;7656;51.954;7.998;2023-07-29T00:24:53;20.30;99.90
15111;DHT22;7656;51.954;7.998;2023-07-29T00:29:15;20.40;99.90
15111;DHT22;7656;51.954;7.998;2023-07-29T00:33:36;20.50;99.90
15111;DHT22;7656;51.954;7.998;2023-07-29T00:37:57;20.70;99.90
15111;DHT22;7656;51.954;7.998;2023-07-29T00:42:18;20.70;99.90
15111;DHT22;7656;51.954;7.998;2023-07-29T00:46:40;20.80;99.90
15111;DHT22;7656;51.954;7.998;2023-07-29T00:51:02;20.70;99.90
15111;DHT22;7656;51.954;7.998;2023-07-29T00:55:24;20.60;99.90
15111;DHT22;7656;51.954;7.998;2023-07-29T00:59:45;20.70;99.90
15111;DHT22;7656;51.954;7.998;2023-07-29T01:04:06;20.60;99.90
15111;DHT22;7656;51.954;7.998;2023-07-29T01:08:44;20.70;99.90
15111;DHT22;7656;51.954;7.998;2023-07-29T01:13:18;20.60;99.90
15111;DHT22;7656;51.954;7.998;2023-07-29T01:18:23;20.40;99.90
15111;DHT22;7656;51.954;7.998;2023-07-29T01:22:47;20.30;99.90
15111;DHT22;7656;51.954;7.998;2023-07-29T01:27:08;20.10;99.90
15111;DHT22;7656;51.954;7.998;2023-07-29T01:31:35;20.10;99.90
15111;DHT22;7656;51.954;7.998;2023-07-29T01:36:03;20.20;99.90
15111;DHT22;7656;51.954;7.998;2023-07-29T01:40:29;20.30;99.90
15111;DHT22;7656;51.954;7.998;2023-07-29T01:44:51;20.40;99.90
15111;DHT22;7656;51.954;7.998;2023-07-29T01:49:12;20.50;99.90
15111;DHT22;7656;51.954;7.998;2023-07-29T01:53:33;20.50;99.90
15111;DHT22;7656;51.954;7.998;2023-07-29T01:57:55;20.50;99.90
15111;DHT22;7656;51.954;7.998;2023-07-29T02:02:18;20.50;99.90
15111;DHT22;7656;51.954;7.998;2023-07-29T02:06:39;20.30;99.90
15111;DHT22;7656;51.954;7.998;2023-07-29T02:11:00;20.10;99.90
15111;DHT22;7656;51.954;7.998;2023-07-29T02:15:21;20.10;99.90
15111;DHT22;7656;51.954;7.998;2023-07-29T02:19:42;20.20;99.90
15111;DHT22;7656;51.954;7.998;2023-07-29T02:24:03;20.00;99.90
15111;DHT22;7656;51.954;7.998;2023-07-29T02:28:25;20.00;99.90
15111;DHT22;7656;51.954;7.998;2023-07-29T02:32:46;19.90;99.90
15111;DHT22;7656;51.954;7.998;2023-07-29T02:37:08;20.00;99.90
15111;DHT22;7656;51.954;7.998;2023-07-29T02:41:29;20.10;99.90
15111;DHT22;7656;51.954;7.998;2023-07-29T02:45:50;20.00;99.90
15111;DHT22;7656;51.954;7.998;2023-07-29T02:50:11;19.90;99.90
15111;DHT22;7656;51.954;7.998;2023-07-29T02:54:32;19.80;99.90
15111;DHT22;7656;51.954;7.998;2023-07-29T02:58:53;19.70;99.90
15111;DHT22;7656;51.954;7.998;2023-07-29T03:03:14;19.40;99.90
15111;DHT22;7656;51.954;7.998;2023-07-29T03:07:35;19.30;99.90
15111;DHT22;7656;51.954;7.998;2023-07-29T03:11:57;19.30;99.90
15111;DHT22;7656;51.954;7.998;2023-07-29T03:16:18;19.50;99.90
15111;DHT22;7656;51.954;7.998;2023-07-29T03:20:49;19.60;99.90
15111;DHT22;7656;51.954;7.998;2023-07-29T03:25:10;19.50;99.90
15111;DHT22;7656;51.954;7.998;2023-07-29T03:29:31;19.10;99.90
15111;DHT22;7656;51.954;7.998;2023-07-29T03:33:52;19.20;99.90
15111;DHT22;7656;51.954;7.998;2023-07-29T03:38:13;19.50;99.90
15111;DHT22;7656;51.954;7.998;2023-07-29T03:42:35;19.70;99.90
15111;DHT22;7656;51.954;7.998;2023-07-29T03:46:57;19.90;99.90
15111;DHT22;7656;51.954;7.998;2023-07-29T03:51:18;20.10;99.90
15111;DHT22;7656;51.954;7.998;2023-07-29T03:55:39;20.20;99.90
15111;DHT22;7656;51.954;7.998;2023-07-29T04:00:00;20.30;99.90
15111;DHT22;7656;51.954;7.998;2023-07-29T04:04:21;20.30;99.90
15111;DHT22;7656;51.954;7.998;2023-07-29T04:08:42;20.10;99.90
15111;DHT22;7656;51.954;7.998;2023-07-29T04:13:03;20.20;99.90
15111;DHT22;7656;51.954;7.998;2023-07-29T04:17:24;20.10;99.90
15111;DHT22;7656;51.954;7.998;2023-07-29T04:21:46;20.20;99.90
15111;DHT22;7656;51.954;7.998;2023-07-29T04:26:07;20.30;99.90
15111;DHT22;7656;51.954;7.998;2023-07-29T04:30:28;20.20;99.90
15111;DHT22;7656;51.954;7.998;2023-07-29T04:34:49;20.10;99.90
15111;DHT22;7656;51.954;7.998;2023-07-29T04:39:10;20.30;99.90
15111;DHT22;7656;51.954;7.998;2023-07-29T04:43:32;20.20;99.90
15111;DHT22;7656;51.954;7.998;2023-07-29T04:47:53;20.30;99.90
15111;DHT22;7656;51.954;7.998;2023-07-29T04:52:14;20.30;99.90
15111;DHT22;7656;51.954;7.998;2023-07-29T04:56:35;20.30;99.90
15111;DHT22;7656;51.954;7.998;2023-07-29T05:00:56;20.50;99.90
15111;DHT22;7656;51.954;7.998;2023-07-29T05:05:18;20.70;99.90
15111;DHT22;7656;51.954;7.998;2023-07-29T05:09:39;20.80;99.90
15111;DHT22;7656;51.954;7.998;2023-07-29T05:14:00;20.60;99.90
15111;DHT22;7656;51.954;7.998;2023-07-29T05:18:23;20.50;99.90
15111;DHT22;7656;51.954;7.998;2023-07-29T05:22:44;20.50;99.90
15111;DHT22;7656;51.954;7.998;2023-07-29T05:27:06;20.60;99.90
15111;DHT22;7656;51.954;7.998;2023-07-29T05:31:29;20.60;99.90
15111;DHT22;7656;51.954;7.998;2023-07-29T05:35:50;20.70;99.90
15111;DHT22;7656;51.954;7.998;2023-07-29T05:40:11;20.50;99.90
15111;DHT22;7656;51.954;7.998;2023-07-29T05:44:34;20.70;99.90
15111;DHT22;7656;51.954;7.998;2023-07-29T05:48:55;20.90;99.90
15111;DHT22;7656;51.954;7.998;2023-07-29T05:53:16;20.90;99.90
15111;DHT22;7656;51.954;7.998;2023-07-29T05:57:37;20.80;99.90
15111;DHT22;7656;51.954;7.998;2023-07-29T06:02:01;20.90;99.90
15111;DHT22;7656;51.954;7.998;2023-07-29T06:06:22;21.00;99.90
15111;DHT22;7656;51.954;7.998;2023-07-29T06:10:44;20.90;99.90
15111;DHT22;7656;51.954;7.998;2023-07-29T06:15:05;20.90;99.90
15111;DHT22;7656;51.954;7.998;2023-07-29T06:19:27;21.00;99.90
15111;DHT22;7656;51.954;7.998;2023-07-29T06:23:48;21.30;99.90
15111;DHT22;7656;51.954;7.998;2023-07-29T06:28:09;21.50;99.90
15111;DHT22;7656;51.954;7.998;2023-07-29T06:32:31;21.70;99.90
15111;DHT22;7656;51.954;7.998;2023-07-29T06:36:52;22.00;99.90
15111;DHT22;7656;51.954;7.998;2023-07-29T06:41:13;22.10;99.90
15111;DHT22;7656;51.954;7.998;2023-07-29T06:45:34;22.00;99.90
15111;DHT22;7656;51.954;7.998;2023-07-29T06:49:55;21.90;99.90
15111;DHT22;7656;51.954;7.998;2023-07-29T06:54:17;21.70;99.90
15111;DHT22;7656;51.954;7.998;2023-07-29T06:58:38;21.50;99.90
15111;DHT22;7656;51.954;7.998;2023-07-29T07:02:59;21.50;99.90
15111;DHT22;7656;51.954;7.998;2023-07-29T07:07:20;21.50;99.90
15111;DHT22;7656;51.954;7.998;2023-07-29T07:11:41;21.50;99.90
15111;DHT22;7656;51.954;7.998;2023-07-29T07:16:02;21.70;99.90
15111;DHT22;7656;51.954;7.998;2023-07-29T07:20:23;22.00;99.90
15111;DHT22;7656;51.954;7.998;2023-07-29T07:24:44;22.20;99.90
15111;DHT22;7656;51.954;7.998;2023-07-29T07:29:05;22.30;99.90
15111;DHT22;7656;51.954;7.998;2023-07-29T07:33:26;22.80;99.90
15111;DHT22;7656;51.954;7.998;2023-07-29T07:37:47;22.70;99.90
15111;DHT22;7656;51.954;7.998;2023-07-29T07:42:08;22.50;99.90
15111;DHT22;7656;51.954;7.998;2023-07-29T07:46:29;22.40;99.90
15111;DHT22;7656;51.954;7.998;2023-07-29T07:50:51;22.60;99.90
15111;DHT22;7656;51.954;7.998;2023-07-29T07:55:12;23.90;99.90
15111;DHT22;7656;51.954;7.998;2023-07-29T07:59:33;23.60;99.90
15111;DHT22;7656;51.954;7.998;2023-07-29T08:03:54;23.50;99.90
15111;DHT22;7656;51.954;7.998;2023-07-29T08:08:15;23.50;99.90
15111;DHT22;7656;51.954;7.998;2023-07-29T08:12:36;23.10;99.90
15111;DHT22;7656;51.954;7.998;2023-07-29T08:16:57;23.00;99.90
15111;DHT22;7656;51.954;7.998;2023-07-29T08:21:18;23.50;99.90
15111;DHT22;7656;51.954;7.998;2023-07-29T08:25:39;24.20;99.90
15111;DHT22;7656;51.954;7.998;2023-07-29T08:30:00;25.20;99.90
15111;DHT22;7656;51.954;7.998;2023-07-29T08:34:21;25.40;99.90
15111;DHT22;7656;51.954;7.998;2023-07-29T08:38:42;25.80;99.90
15111;DHT22;7656;51.954;7.998;2023-07-29T08:43:04;26.00;99.90
15111;DHT22;7656;51.954;7.998;2023-07-29T08:47:29;25.70;99.90
15111;DHT22;7656;51.954;7.998;2023-07-29T08:51:53;25.30;99.90
15111;DHT22;7656;51.954;7.998;2023-07-29T08:56:15;25.40;99.90
15111;DHT22;7656;51.954;7.998;2023-07-29T09:00:37;26.50;99.90
15111;DHT22;7656;51.954;7.998;2023-07-29T09:04:58;29.20;99.90
15111;DHT22;7656;51.954;7.998;2023-07-29T09:09:19;30.90;99.90
15111;DHT22;7656;51.954;7.998;2023-07-29T09:13:41;33.40;99.90
15111;DHT22;7656;51.954;7.998;2023-07-29T09:18:10;33.30;99.90
15111;DHT22;7656;51.954;7.998;2023-07-29T09:22:32;32.40;99.90
15111;DHT22;7656;51.954;7.998;2023-07-29T09:26:53;31.10;99.90
15111;DHT22;7656;51.954;7.998;2023-07-29T09:31:22;29.90;99.90
15111;DHT22;7656;51.954;7.998;2023-07-29T09:35:44;28.90;99.90
15111;DHT22;7656;51.954;7.998;2023-07-29T09:40:07;28.70;99.90
15111;DHT22;7656;51.954;7.998;2023-07-29T09:44:38;28.30;99.90
15111;DHT22;7656;51.954;7.998;2023-07-29T09:48:59;28.30;99.90
15111;DHT22;7656;51.954;7.998;2023-07-29T09:53:21;28.00;99.90
15111;DHT22;7656;51.954;7.998;2023-07-29T09:57:43;27.90;99.90
15111;DHT22;7656;51.954;7.998;2023-07-29T10:02:04;27.80;99.90
15111;DHT22;7656;51.954;7.998;2023-07-29T10:06:26;27.30;99.90
15111;DHT22;7656;51.954;7.998;2023-07-29T10:10:50;27.20;99.90
15111;DHT22;7656;51.954;7.998;2023-07-29T10:15:11;27.00;99.90
15111;DHT22;7656;51.954;7.998;2023-07-29T10:19:33;26.80;99.90
15111;DHT22;7656;51.954;7.998;2023-07-29T10:23:58;27.20;99.90
15111;DHT22;7656;51.954;7.998;2023-07-29T10:28:25;27.40;99.90
15111;DHT22;7656;51.954;7.998;2023-07-29T10:32:48;27.10;99.90
15111;DHT22;7656;51.954;7.998;2023-07-29T10:37:09;26.50;99.90
15111;DHT22;7656;51.954;7.998;2023-07-29T10:42:00;26.10;99.90
15111;DHT22;7656;51.954;7.998;2023-07-29T10:46:23;26.40;99.90
15111;DHT22;7656;51.954;7.998;2023-07-29T10:50:44;27.30;99.90
15111;DHT22;7656;51.954;7.998;2023-07-29T10:55:27;27.80;99.90
15111;DHT22;7656;51.954;7.998;2023-07-29T10:59:55;27.30;99.90
15111;DHT22;7656;51.954;7.998;2023-07-29T11:08:41;27.10;99.90
15111;DHT22;7656;51.954;7.998;2023-07-29T11:13:02;27.40;99.90
15111;DHT22;7656;51.954;7.998;2023-07-29T11:17:23;27.30;99.90
15111;DHT22;7656;51.954;7.998;2023-07-29T11:21:44;27.50;99.90
15111;DHT22;7656;51.954;7.998;2023-07-29T11:26:05;27.50;99.90
15111;DHT22;7656;51.954;7.998;2023-07-29T11:30:26;27.60;99.90
15111;DHT22;7656;51.954;7.998;2023-07-29T11:34:48;27.80;99.90
15111;DHT22;7656;51.954;7.998;2023-07-29T11:39:09;28.20;99.90
15111;DHT22;7656;51.954;7.998;2023-07-29T11:43:35;28.40;99.90
15111;DHT22;7656;51.954;7.998;2023-07-29T11:47:57;28.60;99.90
15111;DHT22;7656;51.954;7.998;2023-07-29T11:52:19;29.00;99.90
15111;DHT22;7656;51.954;7.998;2023-07-29T11:56:40;29.10;99.90
15111;DHT22;7656;51.954;7.998;2023-07-29T12:01:03;28.70;99.90
15111;DHT22;7656;51.954;7.998;2023-07-29T12:05:24;28.50;99.90
15111;DHT22;7656;51.954;7.998;2023-07-29T12:09:46;28.30;99.90
15111;DHT22;7656;51.954;7.998;2023-07-29T12:14:08;28.60;99.90
15111;DHT22;7656;51.954;7.998;2023-07-29T12:18:30;28.60;99.90
15111;DHT22;7656;51.954;7.998;2023-07-29T12:22:57;27.90;99.90
15111;DHT22;7656;51.954;7.998;2023-07-29T12:27:21;27.30;99.90
15111;DHT22;7656;51.954;7.998;2023-07-29T12:31:43;26.90;99.90
15111;DHT22;7656;51.954;7.998;2023-07-29T12:36:04;26.70;99.90
15111;DHT22;7656;51.954;7.998;2023-07-29T12:40:26;27.30;99.90
15111;DHT22;7656;51.954;7.998;2023-07-29T12:44:48;27.60;99.90
15111;DHT22;7656;51.954;7.998;2023-07-29T12:49:09;27.70;99.90
15111;DHT22;7656;51.954;7.998;2023-07-29T12:53:30;28.20;99.90
15111;DHT22;7656;51.954;7.998;2023-07-29T12:57:51;28.60;99.90
15111;DHT22;7656;51.954;7.998;2023-07-29T13:02:12;28.90;99.90
15111;DHT22;7656;51.954;7.998;2023-07-29T13:06:33;29.10;99.90
15111;DHT22;7656;51.954;7.998;2023-07-29T13:10:54;29.10;99.90
15111;DHT22;7656;51.954;7.998;2023-07-29T13:15:15;28.80;99.90
15111;DHT22;7656;51.954;7.998;2023-07-29T13:19:36;28.70;99.90
15111;DHT22;7656;51.954;7.998;2023-07-29T13:23:57;28.60;99.90
15111;DHT22;7656;51.954;7.998;2023-07-29T13:28:18;28.40;99.90
15111;DHT22;7656;51.954;7.998;2023-07-29T13:32:39;28.50;99.90
15111;DHT22;7656;51.954;7.998;2023-07-29T13:37:01;28.70;99.90
15111;DHT22;7656;51.954;7.998;2023-07-29T13:41:22;29.00;99.90
15111;DHT22;7656;51.954;7.998;2023-07-29T13:45:43;28.80;99.90
15111;DHT22;7656;51.954;7.998;2023-07-29T13:50:05;28.70;99.90
15111;DHT22;7656;51.954;7.998;2023-07-29T13:54:28;28.70;99.90
15111;DHT22;7656;51.954;7.998;2023-07-29T13:58:49;28.60;99.90
15111;DHT22;7656;51.954;7.998;2023-07-29T14:03:10;28.40;99.90
15111;DHT22;7656;51.954;7.998;2023-07-29T14:07:31;27.60;99.90
15111;DHT22;7656;51.954;7.998;2023-07-29T14:11:54;26.80;99.90
15111;DHT22;7656;51.954;7.998;2023-07-29T14:16:15;26.10;99.90
15111;DHT22;7656;51.954;7.998;2023-07-29T14:20:36;25.60;99.90
15111;DHT22;7656;51.954;7.998;2023-07-29T14:24:57;25.40;99.90
15111;DHT22;7656;51.954;7.998;2023-07-29T14:29:18;25.40;99.90
15111;DHT22;7656;51.954;7.998;2023-07-29T14:33:39;25.40;99.90
15111;DHT22;7656;51.954;7.998;2023-07-29T14:38:00;25.00;99.90
15111;DHT22;7656;51.954;7.998;2023-07-29T14:42:21;24.90;99.90
15111;DHT22;7656;51.954;7.998;2023-07-29T14:46:43;24.90;99.90
15111;DHT22;7656;51.954;7.998;2023-07-29T14:51:04;24.90;99.90
15111;DHT22;7656;51.954;7.998;2023-07-29T14:55:25;24.80;99.90
15111;DHT22;7656;51.954;7.998;2023-07-29T14:59:46;24.20;99.90
15111;DHT22;7656;51.954;7.998;2023-07-29T15:04:07;23.50;99.90
15111;DHT22;7656;51.954;7.998;2023-07-29T15:08:28;22.70;99.90
15111;DHT22;7656;51.954;7.998;2023-07-29T15:12:49;22.10;99.90
15111;DHT22;7656;51.954;7.998;2023-07-29T15:17:10;21.60;99.90
15111;DHT22;7656;51.954;7.998;2023-07-29T15:21:32;21.10;99.90
15111;DHT22;7656;51.954;7.998;2023-07-29T15:25:55;20.90;99.90
15111;DHT22;7656;51.954;7.998;2023-07-29T15:30:17;20.90;99.90
15111;DHT22;7656;51.954;7.998;2023-07-29T15:34:38;20.90;99.90
15111;DHT22;7656;51.954;7.998;2023-07-29T15:38:59;21.10;99.90
15111;DHT22;7656;51.954;7.998;2023-07-29T15:43:20;21.10;99.90
15111;DHT22;7656;51.954;7.998;2023-07-29T15:47:41;21.20;99.90
15111;DHT22;7656;51.954;7.998;2023-07-29T15:52:03;21.20;99.90
15111;DHT22;7656;51.954;7.998;2023-07-29T15:56:24;21.40;99.90
15111;DHT22;7656;51.954;7.998;2023-07-29T16:00:48;21.40;99.90
15111;DHT22;7656;51.954;7.998;2023-07-29T16:05:09;21.70;99.90
15111;DHT22;7656;51.954;7.998;2023-07-29T16:09:30;22.00;99.90
15111;DHT22;7656;51.954;7.998;2023-07-29T16:13:51;22.20;99.90
15111;DHT22;7656;51.954;7.998;2023-07-29T16:18:12;22.40;99.90
15111;DHT22;7656;51.954;7.998;2023-07-29T16:22:33;21.90;99.90
15111;DHT22;7656;51.954;7.998;2023-07-29T16:26:55;22.00;99.90
15111;DHT22;7656;51.954;7.998;2023-07-29T16:31:16;22.20;99.90
15111;DHT22;7656;51.954;7.998;2023-07-29T16:35:39;22.30;99.90
15111;DHT22;7656;51.954;7.998;2023-07-29T16:40:00;22.00;99.90
15111;DHT22;7656;51.954;7.998;2023-07-29T16:44:23;21.90;99.90
15111;DHT22;7656;51.954;7.998;2023-07-29T16:48:44;22.00;99.90
15111;DHT22;7656;51.954;7.998;2023-07-29T16:53:05;21.80;99.90
15111;DHT22;7656;51.954;7.998;2023-07-29T16:57:26;21.50;99.90
15111;DHT22;7656;51.954;7.998;2023-07-29T17:01:47;21.50;99.90
15111;DHT22;7656;51.954;7.998;2023-07-29T17:06:09;21.90;99.90
15111;DHT22;7656;51.954;7.998;2023-07-29T17:10:30;21.80;99.90
15111;DHT22;7656;51.954;7.998;2023-07-29T17:14:51;21.60;99.90
15111;DHT22;7656;51.954;7.998;2023-07-29T17:19:12;21.90;99.90
15111;DHT22;7656;51.954;7.998;2023-07-29T17:23:33;22.10;99.90
15111;DHT22;7656;51.954;7.998;2023-07-29T17:27:54;22.00;99.90
15111;DHT22;7656;51.954;7.998;2023-07-29T17:32:16;22.00;99.90
15111;DHT22;7656;51.954;7.998;2023-07-29T17:36:37;22.20;99.90
15111;DHT22;7656;51.954;7.998;2023-07-29T17:40:59;22.30;99.90
15111;DHT22;7656;51.954;7.998;2023-07-29T17:45:22;22.30;99.90
15111;DHT22;7656;51.954;7.998;2023-07-29T17:49:43;21.90;99.90
15111;DHT22;7656;51.954;7.998;2023-07-29T17:54:04;21.90;99.90
15111;DHT22;7656;51.954;7.998;2023-07-29T17:58:25;21.60;99.90
15111;DHT22;7656;51.954;7.998;2023-07-29T18:02:46;21.50;99.90
15111;DHT22;7656;51.954;7.998;2023-07-29T18:07:07;21.40;99.90
15111;DHT22;7656;51.954;7.998;2023-07-29T18:11:28;21.40;99.90
15111;DHT22;7656;51.954;7.998;2023-07-29T18:15:52;21.50;99.90
15111;DHT22;7656;51.954;7.998;2023-07-29T18:20:13;21.70;99.90
15111;DHT22;7656;51.954;7.998;2023-07-29T18:24:35;21.90;99.90
15111;DHT22;7656;51.954;7.998;2023-07-29T18:28:56;22.00;99.90
15111;DHT22;7656;51.954;7.998;2023-07-29T18:33:17;21.90;99.90
15111;DHT22;7656;51.954;7.998;2023-07-29T18:37:38;21.50;99.90
15111;DHT22;7656;51.954;7.998;2023-07-29T18:41:59;21.50;99.90
15111;DHT22;7656;51.954;7.998;2023-07-29T18:46:20;21.70;99.90
15111;DHT22;7656;51.954;7.998;2023-07-29T18:50:43;21.80;99.90
15111;DHT22;7656;51.954;7.998;2023-07-29T18:55:04;21.70;99.90
15111;DHT22;7656;51.954;7.998;2023-07-29T18:59:26;21.70;99.90
15111;DHT22;7656;51.954;7.998;2023-07-29T19:03:47;21.50;99.90
15111;DHT22;7656;51.954;7.998;2023-07-29T19:08:09;21.40;99.90
15111;DHT22;7656;51.954;7.998;2023-07-29T19:12:32;21.40;99.90
15111;DHT22;7656;51.954;7.998;2023-07-29T19:16:53;21.30;99.90
15111;DHT22;7656;51.954;7.998;2023-07-29T19:21:15;21.40;99.90
15111;DHT22;7656;51.954;7.998;2023-07-29T19:25:47;21.20;99.90
15111;DHT22;7656;51.954;7.998;2023-07-29T19:30:09;21.00;99.90
15111;DHT22;7656;51.954;7.998;2023-07-29T19:34:30;20.90;99.90
15111;DHT22;7656;51.954;7.998;2023-07-29T19:38:51;21.00;99.90
15111;DHT22;7656;51.954;7.998;2023-07-29T19:43:12;21.00;99.90
15111;DHT22;7656;51.954;7.998;2023-07-29T19:47:33;21.00;99.90
15111;DHT22;7656;51.954;7.998;2023-07-29T19:51:54;20.80;99.90
15111;DHT22;7656;51.954;7.998;2023-07-29T19:56:21;20.60;99.90
15111;DHT22;7656;51.954;7.998;2023-07-29T20:00:42;20.60;99.90
15111;DHT22;7656;51.954;7.998;2023-07-29T20:05:03;20.60;99.90
15111;DHT22;7656;51.954;7.998;2023-07-29T20:09:25;20.40;99.90
15111;DHT22;7656;51.954;7.998;2023-07-29T20:13:46;20.00;99.90
15111;DHT22;7656;51.954;7.998;2023-07-29T20:18:07;20.20;99.90
15111;DHT22;7656;51.954;7.998;2023-07-29T20:22:28;20.20;99.90
15111;DHT22;7656;51.954;7.998;2023-07-29T20:26:49;20.00;99.90
15111;DHT22;7656;51.954;7.998;2023-07-29T20:31:10;19.90;99.90
15111;DHT22;7656;51.954;7.998;2023-07-29T20:35:31;19.60;99.90
15111;DHT22;7656;51.954;7.998;2023-07-29T20:39:52;19.40;99.90
15111;DHT22;7656;51.954;7.998;2023-07-29T20:44:13;19.50;99.90
15111;DHT22;7656;51.954;7.998;2023-07-29T20:48:34;19.40;99.90
15111;DHT22;7656;51.954;7.998;2023-07-29T20:52:55;19.40;99.90
15111;DHT22;7656;51.954;7.998;2023-07-29T20:57:16;19.50;99.90
15111;DHT22;7656;51.954;7.998;2023-07-29T21:01:38;19.50;99.90
15111;DHT22;7656;51.954;7.998;2023-07-29T21:05:59;19.30;99.90
15111;DHT22;7656;51.954;7.998;2023-07-29T21:10:20;19.40;99.90
15111;DHT22;7656;51.954;7.998;2023-07-29T21:14:41;19.50;99.90
15111;DHT22;7656;51.954;7.998;2023-07-29T21:19:02;19.40;99.90
15111;DHT22;7656;51.954;7.998;2023-07-29T21:23:24;19.30;99.90
15111;DHT22;7656;51.954;7.998;2023-07-29T21:27:45;19.20;99.90
15111;DHT22;7656;51.954;7.998;2023-07-29T21:32:06;19.20;99.90
15111;DHT22;7656;51.954;7.998;2023-07-29T21:36:27;19.20;99.90
15111;DHT22;7656;51.954;7.998;2023-07-29T21:40:49;19.20;99.90
15111;DHT22;7656;51.954;7.998;2023-07-29T21:45:11;19.00;99.90
15111;DHT22;7656;51.954;7.998;2023-07-29T21:49:32;19.00;99.90
15111;DHT22;7656;51.954;7.998;2023-07-29T21:53:53;18.90;99.90
15111;DHT22;7656;51.954;7.998;2023-07-29T21:58:14;18.90;99.90
15111;DHT22;7656;51.954;7.998;2023-07-29T22:02:35;18.90;99.90
15111;DHT22;7656;51.954;7.998;2023-07-29T22:06:56;18.80;99.90
15111;DHT22;7656;51.954;7.998;2023-07-29T22:11:17;18.70;99.90
15111;DHT22;7656;51.954;7.998;2023-07-29T22:15:38;18.80;99.90
15111;DHT22;7656;51.954;7.998;2023-07-29T22:19:59;18.80;99.90
15111;DHT22;7656;51.954;7.998;2023-07-29T22:24:20;18.80;99.90
15111;DHT22;7656;51.954;7.998;2023-07-29T22:28:41;18.80;99.90
15111;DHT22;7656;51.954;7.998;2023-07-29T22:33:02;18.80;99.90
15111;DHT22;7656;51.954;7.998;2023-07-29T22:37:23;18.80;99.90
15111;DHT22;7656;51.954;7.998;2023-07-29T22:41:44;18.90;99.90
15111;DHT22;7656;51.954;7.998;2023-07-29T22:46:07;18.80;99.90
15111;DHT22;7656;51.954;7.998;2023-07-29T22:50:28;18.90;99.90
15111;DHT22;7656;51.954;7.998;2023-07-29T22:54:49;18.90;99.90
15111;DHT22;7656;51.954;7.998;2023-07-29T22:59:10;18.80;99.90
15111;DHT22;7656;51.954;7.998;2023-07-29T23:03:32;18.80;99.90
15111;DHT22;7656;51.954;7.998;2023-07-29T23:07:53;18.80;99.90
15111;DHT22;7656;51.954;7.998;2023-07-29T23:12:14;18.60;99.90
15111;DHT22;7656;51.954;7.998;2023-07-29T23:16:35;18.60;99.90
15111;DHT22;7656;51.954;7.998;2023-07-29T23:20:56;18.60;99.90
15111;DHT22;7656;51.954;7.998;2023-07-29T23:25:17;18.60;99.90
15111;DHT22;7656;51.954;7.998;2023-07-29T23:29:38;18.60;99.90
15111;DHT22;7656;51.954;7.998;2023-07-29T23:33:59;18.50;99.90
15111;DHT22;7656;51.954;7.998;2023-07-29T23:38:20;18.40;99.90
15111;DHT22;7656;51.954;7.998;2023-07-29T23:42:42;18.40;99.90
15111;DHT22;7656;51.954;7.998;2023-07-29T23:47:03;18.30;99.90
15111;DHT22;7656;51.954;7.998;2023-07-29T23:51:24;18.30;99.90
15111;DHT22;7656;51.954;7.998;2023-07-29T23:55:45;18.30;99.90
